Time;durP1;ratioP1;P1;durP2;ratioP2;P2;SDS_P1;SDS_P2;PMS_P1;PMS_P2;Temp;Humidity;BMP_temperature;BMP_pressure;BME280_temperature;BME280_humidity;BME280_pressure;Samples;Min_cycle;Max_cycle;Signal;HPM_P1;HPM_P2
2021/07/10 00:00:13;;;;;;;9.50;3.78;;;;;;;;;;4941972;29;20047;-72
2021/07/10 00:02:42;;;;;;;13.60;4.50;;;;;;;;;;4943412;29;20019;-74
2021/07/10 00:05:12;;;;;;;20.83;4.40;;;;;;;;;;4946742;28;20543;-71
2021/07/10 00:07:39;;;;;;;10.57;3.70;;;;;;;;;;4941135;28;20131;-73
2021/07/10 00:10:09;;;;;;;6.90;3.70;;;;;;;;;;4940404;29;20482;-78
2021/07/10 00:12:35;;;;;;;8.00;3.72;;;;;;;;;;4940097;29;20761;-73
2021/07/10 00:15:01;;;;;;;7.03;3.35;;;;;;;;;;4944373;29;20362;-73
2021/07/10 00:17:27;;;;;;;8.13;3.83;;;;;;;;;;4936597;29;20034;-73
2021/07/10 00:19:53;;;;;;;6.20;3.30;;;;;;;;;;4935796;29;20047;-73
2021/07/10 00:22:22;;;;;;;6.05;3.80;;;;;;;;;;4944954;29;20030;-72
2021/07/10 00:24:48;;;;;;;6.68;3.40;;;;;;;;;;4941672;29;20093;-75
2021/07/10 00:27:14;;;;;;;10.15;4.07;;;;;;;;;;4951904;28;20034;-72
2021/07/10 00:29:40;;;;;;;4.68;3.90;;;;;;;;;;4950184;29;20098;-73
2021/07/10 00:32:07;;;;;;;8.02;3.60;;;;;;;;;;4949855;29;20023;-73
2021/07/10 00:34:33;;;;;;;11.75;4.30;;;;;;;;;;4946391;29;20034;-79
2021/07/10 00:37:10;;;;;;;12.90;4.00;;;;;;;;;;4948274;29;20039;-73
2021/07/10 00:39:36;;;;;;;7.38;3.85;;;;;;;;;;4943938;28;20048;-74
2021/07/10 00:42:02;;;;;;;11.10;3.58;;;;;;;;;;4940785;29;20020;-72
2021/07/10 00:44:28;;;;;;;6.63;3.78;;;;;;;;;;4942452;29;20400;-73
2021/07/10 00:46:54;;;;;;;7.10;3.58;;;;;;;;;;4944103;29;20016;-82
2021/07/10 00:49:20;;;;;;;7.38;3.95;;;;;;;;;;4944341;29;20027;-74
2021/07/10 00:51:46;;;;;;;8.48;4.63;;;;;;;;;;4944889;29;20023;-75
2021/07/10 00:54:12;;;;;;;9.52;4.40;;;;;;;;;;4947185;29;20031;-75
2021/07/10 00:56:39;;;;;;;9.02;4.80;;;;;;;;;;4953057;28;20027;-72
2021/07/10 00:59:05;;;;;;;9.75;4.32;;;;;;;;;;4940615;29;20039;-74
2021/07/10 01:01:32;;;;;;;11.32;4.30;;;;;;;;;;4946649;29;20381;-77
2021/07/10 01:03:58;;;;;;;8.95;3.92;;;;;;;;;;4943309;29;20172;-72
2021/07/10 01:06:47;;;;;;;8.00;4.20;;;;;;;;;;4941527;29;20028;-76
2021/07/10 01:09:22;;;;;;;7.38;3.90;;;;;;;;;;4968171;28;20035;-71
2021/07/10 01:11:48;;;;;;;9.82;4.60;;;;;;;;;;4941691;29;20035;-74
2021/07/10 01:14:14;;;;;;;8.50;4.43;;;;;;;;;;4937182;29;20028;-83
2021/07/10 01:16:40;;;;;;;6.97;4.25;;;;;;;;;;4949543;29;20023;-74
2021/07/10 01:19:06;;;;;;;14.75;4.60;;;;;;;;;;4939823;29;20113;-74
2021/07/10 01:21:32;;;;;;;12.13;5.05;;;;;;;;;;4938429;29;20028;-75
2021/07/10 01:23:58;;;;;;;7.78;4.13;;;;;;;;;;4939406;29;20478;-74
2021/07/10 01:26:24;;;;;;;6.65;3.92;;;;;;;;;;4940474;29;20620;-78
2021/07/10 01:28:50;;;;;;;7.00;3.92;;;;;;;;;;4946560;29;20028;-76
2021/07/10 01:31:17;;;;;;;12.57;4.80;;;;;;;;;;4940424;29;20091;-78
2021/07/10 01:33:43;;;;;;;7.90;4.55;;;;;;;;;;4938576;29;20032;-78
2021/07/10 01:36:09;;;;;;;9.90;4.30;;;;;;;;;;4945693;28;20119;-79
2021/07/10 01:38:36;;;;;;;9.48;4.57;;;;;;;;;;4960763;29;20020;-76
2021/07/10 01:41:02;;;;;;;6.97;4.22;;;;;;;;;;4946726;29;20551;-80
2021/07/10 01:43:28;;;;;;;10.18;4.95;;;;;;;;;;4948793;29;20023;-77
2021/07/10 01:45:55;;;;;;;9.63;4.70;;;;;;;;;;4943401;29;20405;-80
2021/07/10 01:48:21;;;;;;;6.97;4.60;;;;;;;;;;4949162;28;20024;-77
2021/07/10 01:50:47;;;;;;;11.20;5.45;;;;;;;;;;4951380;29;20035;-78
2021/07/10 01:53:18;;;;;;;6.88;4.80;;;;;;;;;;4961366;29;20028;-73
2021/07/10 01:55:46;;;;;;;7.50;5.00;;;;;;;;;;4959531;29;20055;-77
2021/07/10 01:58:12;;;;;;;10.60;5.00;;;;;;;;;;4945804;29;20028;-75
2021/07/10 02:00:40;;;;;;;7.60;5.00;;;;;;;;;;4953561;29;20194;-77
2021/07/10 02:03:07;;;;;;;11.48;5.20;;;;;;;;;;4948574;28;20015;-74
2021/07/10 02:05:34;;;;;;;10.90;5.63;;;;;;;;;;4950686;29;20030;-74
2021/07/10 02:08:01;;;;;;;8.50;5.30;;;;;;;;;;4963767;28;20048;-78
2021/07/10 02:10:29;;;;;;;8.85;4.97;;;;;;;;;;4952743;29;20110;-79
2021/07/10 02:12:56;;;;;;;8.48;4.65;;;;;;;;;;4949140;29;20393;-80
2021/07/10 02:15:23;;;;;;;7.57;5.15;;;;;;;;;;4948549;29;20019;-77
2021/07/10 02:17:49;;;;;;;8.95;5.15;;;;;;;;;;4949864;29;20027;-77
2021/07/10 02:20:18;;;;;;;8.88;5.15;;;;;;;;;;4945171;29;20480;-75
2021/07/10 02:22:44;;;;;;;8.60;5.60;;;;;;;;;;4949540;29;20027;-83
2021/07/10 02:25:12;;;;;;;9.15;5.10;;;;;;;;;;4943836;28;20047;-79
2021/07/10 02:27:38;;;;;;;10.45;5.25;;;;;;;;;;4951130;29;20046;-76
2021/07/10 02:30:08;;;;;;;11.25;5.50;;;;;;;;;;4944060;29;20032;-83
2021/07/10 02:32:35;;;;;;;8.43;5.13;;;;;;;;;;4940452;29;20119;-77
2021/07/10 02:35:01;;;;;;;7.07;5.30;;;;;;;;;;4945558;29;20029;-81
2021/07/10 02:37:28;;;;;;;7.57;4.80;;;;;;;;;;4949370;29;20118;-79
2021/07/10 02:39:54;;;;;;;8.57;4.65;;;;;;;;;;4944830;29;20656;-81
2021/07/10 02:42:20;;;;;;;10.23;4.45;;;;;;;;;;4957747;28;20027;-79
2021/07/10 02:44:46;;;;;;;8.80;4.57;;;;;;;;;;4948977;29;20031;-78
2021/07/10 02:47:12;;;;;;;13.95;5.30;;;;;;;;;;4960552;28;20035;-83
2021/07/10 02:49:38;;;;;;;11.75;4.95;;;;;;;;;;4942337;29;20038;-78
2021/07/10 02:52:07;;;;;;;10.20;4.80;;;;;;;;;;4950513;29;20040;-75
2021/07/10 02:54:34;;;;;;;9.32;5.05;;;;;;;;;;4944327;29;20034;-76
2021/07/10 02:57:00;;;;;;;9.50;5.30;;;;;;;;;;4964074;28;20386;-75
2021/07/10 02:59:26;;;;;;;9.38;5.45;;;;;;;;;;4947456;29;20655;-90
2021/07/10 03:01:52;;;;;;;11.50;5.43;;;;;;;;;;4946263;29;20381;-79
2021/07/10 03:04:18;;;;;;;7.78;5.32;;;;;;;;;;4945214;29;20024;-81
2021/07/10 03:06:44;;;;;;;7.75;5.60;;;;;;;;;;4946456;29;20130;-74
2021/07/10 03:09:10;;;;;;;11.18;5.90;;;;;;;;;;4953706;29;20114;-76
2021/07/10 03:11:36;;;;;;;12.32;5.07;;;;;;;;;;4945944;29;20095;-74
2021/07/10 03:14:02;;;;;;;8.30;5.60;;;;;;;;;;4936926;29;20035;-76
2021/07/10 03:16:28;;;;;;;8.52;5.85;;;;;;;;;;4951402;29;20035;-85
2021/07/10 03:18:54;;;;;;;8.20;5.32;;;;;;;;;;4951560;29;20037;-76
2021/07/10 03:21:20;;;;;;;10.05;5.85;;;;;;;;;;4945458;29;20019;-76
2021/07/10 03:23:47;;;;;;;9.23;5.80;;;;;;;;;;4947971;29;20079;-81
2021/07/10 03:26:13;;;;;;;8.13;5.50;;;;;;;;;;4946303;29;20031;-81
2021/07/10 03:28:40;;;;;;;11.00;5.88;;;;;;;;;;4948331;29;20035;-79
2021/07/10 03:31:06;;;;;;;10.23;5.93;;;;;;;;;;4945318;29;20080;-80
2021/07/10 03:33:38;;;;;;;11.68;6.07;;;;;;;;;;4940485;29;20032;-80
2021/07/10 03:36:05;;;;;;;10.93;5.93;;;;;;;;;;4936258;29;20034;-77
2021/07/10 03:38:32;;;;;;;10.18;6.22;;;;;;;;;;4944267;29;20038;-78
2021/07/10 03:40:58;;;;;;;10.85;5.70;;;;;;;;;;4963549;28;20567;-81
2021/07/10 03:43:24;;;;;;;9.90;7.20;;;;;;;;;;4941429;29;20023;-77
2021/07/10 03:45:52;;;;;;;8.95;7.03;;;;;;;;;;4953526;29;20710;-80
2021/07/10 03:48:19;;;;;;;7.68;6.72;;;;;;;;;;4940466;29;20540;-77
2021/07/10 03:50:45;;;;;;;10.02;7.13;;;;;;;;;;4940670;29;20038;-76
2021/07/10 03:53:12;;;;;;;8.80;7.45;;;;;;;;;;4945297;29;20061;-77
2021/07/10 03:55:39;;;;;;;10.07;7.32;;;;;;;;;;4947252;29;20520;-77
2021/07/10 03:58:05;;;;;;;9.70;7.30;;;;;;;;;;4960689;28;20050;-75
2021/07/10 04:00:31;;;;;;;9.68;7.47;;;;;;;;;;4948090;29;20043;-75
2021/07/10 04:02:57;;;;;;;11.80;7.38;;;;;;;;;;4942034;29;20508;-76
2021/07/10 04:05:23;;;;;;;15.38;7.60;;;;;;;;;;4944218;29;20031;-74
2021/07/10 04:07:49;;;;;;;11.10;7.82;;;;;;;;;;4944653;29;20501;-91
2021/07/10 04:10:16;;;;;;;12.60;6.85;;;;;;;;;;4944017;29;20032;-82
2021/07/10 04:12:43;;;;;;;10.40;7.05;;;;;;;;;;4948949;29;20070;-86
2021/07/10 04:15:09;;;;;;;10.43;7.78;;;;;;;;;;4959401;28;20078;-75
2021/07/10 04:17:35;;;;;;;12.90;7.50;;;;;;;;;;4943160;29;20036;-75
2021/07/10 04:20:04;;;;;;;9.65;7.70;;;;;;;;;;4960998;28;20035;-72
2021/07/10 04:22:40;;;;;;;8.68;7.30;;;;;;;;;;4946133;29;20545;-72
2021/07/10 04:25:07;;;;;;;12.30;7.72;;;;;;;;;;4956642;28;20073;-72
2021/07/10 04:27:34;;;;;;;11.20;7.57;;;;;;;;;;4943993;29;20075;-87
2021/07/10 04:30:00;;;;;;;11.27;7.65;;;;;;;;;;4944579;29;20035;-89
2021/07/10 04:32:27;;;;;;;10.13;7.88;;;;;;;;;;4939557;29;20027;-89
2021/07/10 04:34:53;;;;;;;9.32;8.27;;;;;;;;;;4947683;29;20111;-77
2021/07/10 04:37:19;;;;;;;10.43;7.82;;;;;;;;;;4945576;29;20038;-83
2021/07/10 04:39:45;;;;;;;11.98;7.90;;;;;;;;;;4942235;29;20050;-87
2021/07/10 04:42:24;;;;;;;11.35;7.43;;;;;;;;;;4948446;29;20396;-72
2021/07/10 04:45:16;;;;;;;;;;;;;;;;;;;;;
2021/07/10 04:48:00;;;;;;;12.13;8.98;;;;;;;;;;4914688;29;20066;-76
2021/07/10 04:50:26;;;;;;;11.38;7.93;;;;;;;;;;4941745;29;20573;-86
2021/07/10 04:52:52;;;;;;;11.18;7.95;;;;;;;;;;4955362;28;20144;-74
2021/07/10 04:55:18;;;;;;;11.65;8.70;;;;;;;;;;4945395;29;20446;-81
2021/07/10 04:57:45;;;;;;;11.57;8.27;;;;;;;;;;4938825;29;20028;-77
2021/07/10 05:00:11;;;;;;;14.55;8.48;;;;;;;;;;4950024;29;20478;-74
2021/07/10 05:02:38;;;;;;;13.30;8.05;;;;;;;;;;4943653;29;20143;-74
2021/07/10 05:05:04;;;;;;;10.57;8.10;;;;;;;;;;4955762;28;20511;-72
2021/07/10 05:10:30;;;;;;;13.38;8.18;;;;;;;;;;4924738;29;20472;-75
2021/07/10 05:12:57;;;;;;;13.45;7.40;;;;;;;;;;4927598;29;20505;-74
2021/07/10 05:15:29;;;;;;;9.55;7.60;;;;;;;;;;4923198;29;20044;-74
2021/07/10 05:17:55;;;;;;;10.70;7.80;;;;;;;;;;4929804;29;20078;-72
2021/07/10 05:20:21;;;;;;;13.35;7.63;;;;;;;;;;4929626;29;20044;-73
2021/07/10 05:22:53;;;;;;;12.70;8.13;;;;;;;;;;4923518;29;20055;-74
2021/07/10 05:25:24;;;;;;;11.75;7.55;;;;;;;;;;4925833;29;20079;-72
2021/07/10 05:27:51;;;;;;;8.48;6.88;;;;;;;;;;4925347;29;20048;-72
2021/07/10 05:30:18;;;;;;;12.93;6.60;;;;;;;;;;4924200;29;20032;-72
2021/07/10 05:32:44;;;;;;;18.70;7.03;;;;;;;;;;4917425;29;20032;-72
2021/07/10 05:35:11;;;;;;;10.20;6.65;;;;;;;;;;4925173;29;20040;-72
2021/07/10 05:37:43;;;;;;;10.98;6.60;;;;;;;;;;4922812;29;20038;-72
2021/07/10 05:40:09;;;;;;;8.70;6.25;;;;;;;;;;4928183;29;20062;-72
2021/07/10 05:42:35;;;;;;;9.55;6.07;;;;;;;;;;4916264;29;20106;-72
2021/07/10 05:45:02;;;;;;;8.38;6.25;;;;;;;;;;4918450;29;20028;-71
2021/07/10 05:47:28;;;;;;;14.63;6.05;;;;;;;;;;4935878;29;20043;-71
2021/07/10 05:49:54;;;;;;;8.68;6.10;;;;;;;;;;4936802;29;20130;-70
2021/07/10 05:52:20;;;;;;;15.70;7.05;;;;;;;;;;4936816;29;20032;-71
2021/07/10 05:54:46;;;;;;;11.65;6.45;;;;;;;;;;4950569;29;20477;-71
2021/07/10 05:57:12;;;;;;;14.73;6.30;;;;;;;;;;4944769;29;20035;-71
2021/07/10 05:59:38;;;;;;;39.22;7.90;;;;;;;;;;4941882;29;20086;-71
2021/07/10 06:02:06;;;;;;;17.45;6.30;;;;;;;;;;4944920;29;20034;-71
2021/07/10 06:04:33;;;;;;;18.15;6.22;;;;;;;;;;4941761;29;20432;-72
2021/07/10 06:07:01;;;;;;;11.55;6.07;;;;;;;;;;4940760;29;20075;-71
2021/07/10 06:09:27;;;;;;;10.23;5.50;;;;;;;;;;4950741;29;20091;-71
2021/07/10 06:11:54;;;;;;;8.38;5.32;;;;;;;;;;4947457;29;20114;-72
2021/07/10 06:14:21;;;;;;;7.22;5.22;;;;;;;;;;4947065;29;20434;-72
2021/07/10 06:16:47;;;;;;;7.22;5.15;;;;;;;;;;4937243;29;20020;-71
2021/07/10 06:19:13;;;;;;;7.40;4.90;;;;;;;;;;4938214;29;20042;-72
2021/07/10 06:21:39;;;;;;;10.25;5.32;;;;;;;;;;4944930;28;20094;-71
2021/07/10 06:24:05;;;;;;;9.65;5.13;;;;;;;;;;4943030;29;20103;-72
2021/07/10 06:26:32;;;;;;;8.13;5.20;;;;;;;;;;4946587;29;20572;-70
2021/07/10 06:29:00;;;;;;;10.00;4.88;;;;;;;;;;4947025;29;20023;-69
2021/07/10 06:31:26;;;;;;;62.80;8.80;;;;;;;;;;4964728;28;20122;-70
2021/07/10 06:33:52;;;;;;;11.00;5.47;;;;;;;;;;4952448;29;20026;-71
2021/07/10 06:36:18;;;;;;;9.25;4.80;;;;;;;;;;4952191;29;20059;-70
2021/07/10 06:38:44;;;;;;;18.42;6.07;;;;;;;;;;4947700;29;20073;-71
2021/07/10 06:41:10;;;;;;;8.82;5.60;;;;;;;;;;4949582;29;20035;-71
2021/07/10 06:43:36;;;;;;;13.40;5.68;;;;;;;;;;4945193;29;20024;-70
2021/07/10 06:46:02;;;;;;;15.90;5.50;;;;;;;;;;4948271;29;20106;-70
2021/07/10 06:48:36;;;;;;;9.20;5.60;;;;;;;;;;4948908;29;20389;-72
2021/07/10 06:51:03;;;;;;;9.32;5.05;;;;;;;;;;4947148;29;20032;-73
2021/07/10 06:53:34;;;;;;;8.20;4.72;;;;;;;;;;4941658;29;20085;-70
2021/07/10 06:56:00;;;;;;;13.52;5.22;;;;;;;;;;4965809;28;20034;-71
2021/07/10 06:58:29;;;;;;;59.13;7.93;;;;;;;;;;4946115;29;20012;-70
2021/07/10 07:00:55;;;;;;;15.23;4.97;;;;;;;;;;4949332;29;20047;-69
2021/07/10 07:03:31;;;;;;;7.55;4.30;;;;;;;;;;4952141;29;20034;-70
2021/07/10 07:06:05;;;;;;;9.20;4.43;;;;;;;;;;4945186;29;20061;-70
2021/07/10 07:08:38;;;;;;;11.93;4.68;;;;;;;;;;4963171;28;20051;-69
2021/07/10 07:11:07;;;;;;;7.72;4.43;;;;;;;;;;4956511;28;20058;-69
2021/07/10 07:13:33;;;;;;;10.02;5.72;;;;;;;;;;4944413;29;20104;-70
2021/07/10 07:16:06;;;;;;;8.15;4.55;;;;;;;;;;4948704;29;20027;-70
2021/07/10 07:18:32;;;;;;;12.00;5.10;;;;;;;;;;4939465;29;20027;-70
2021/07/10 07:21:04;;;;;;;10.80;4.78;;;;;;;;;;4943208;29;20036;-72
2021/07/10 07:23:30;;;;;;;14.27;4.57;;;;;;;;;;4945248;29;20031;-69
2021/07/10 07:26:08;;;;;;;6.07;4.20;;;;;;;;;;4954804;29;20054;-70
2021/07/10 07:28:39;;;;;;;12.85;5.18;;;;;;;;;;4948057;29;20019;-70
2021/07/10 07:31:06;;;;;;;12.43;4.70;;;;;;;;;;4949588;29;20027;-70
2021/07/10 07:33:32;;;;;;;13.48;4.43;;;;;;;;;;4951377;28;20031;-70
2021/07/10 07:36:02;;;;;;;6.85;4.45;;;;;;;;;;4953122;29;20037;-71
2021/07/10 07:38:28;;;;;;;10.45;4.25;;;;;;;;;;4931975;29;20122;-72
2021/07/10 07:40:56;;;;;;;8.35;4.40;;;;;;;;;;4938016;29;20039;-71
2021/07/10 07:43:22;;;;;;;7.38;4.00;;;;;;;;;;4947793;29;20476;-70
2021/07/10 07:45:48;;;;;;;11.40;4.38;;;;;;;;;;4948910;29;20109;-71
2021/07/10 07:48:14;;;;;;;12.55;4.32;;;;;;;;;;4948736;29;20041;-72
2021/07/10 07:50:43;;;;;;;16.88;4.88;;;;;;;;;;4953103;29;20058;-70
2021/07/10 07:53:09;;;;;;;12.25;4.63;;;;;;;;;;4960328;28;20572;-70
2021/07/10 07:55:36;;;;;;;8.23;4.25;;;;;;;;;;4947839;29;20024;-69
2021/07/10 07:58:08;;;;;;;10.25;4.78;;;;;;;;;;4942170;29;20051;-70
2021/07/10 08:00:34;;;;;;;12.82;4.25;;;;;;;;;;4958011;28;20523;-70
2021/07/10 08:03:05;;;;;;;6.25;4.40;;;;;;;;;;4945531;29;20435;-72
2021/07/10 08:05:32;;;;;;;5.90;4.30;;;;;;;;;;4941389;28;20030;-71
2021/07/10 08:07:58;;;;;;;23.27;5.43;;;;;;;;;;4966357;28;20042;-71
2021/07/10 08:10:24;;;;;;;5.50;4.20;;;;;;;;;;4947692;29;20031;-70
2021/07/10 08:12:50;;;;;;;15.70;4.90;;;;;;;;;;4940818;29;20393;-71
2021/07/10 08:15:21;;;;;;;8.90;4.03;;;;;;;;;;4945986;29;20063;-73
2021/07/10 08:17:48;;;;;;;7.55;4.20;;;;;;;;;;4948913;29;20027;-73
2021/07/10 08:20:18;;;;;;;7.13;4.30;;;;;;;;;;4940816;29;20464;-70
2021/07/10 08:22:45;;;;;;;12.88;4.18;;;;;;;;;;4940116;29;20028;-72
2021/07/10 08:25:12;;;;;;;8.23;4.60;;;;;;;;;;4943557;29;20039;-73
2021/07/10 08:27:38;;;;;;;10.13;4.95;;;;;;;;;;4938595;29;20050;-73
2021/07/10 08:30:08;;;;;;;15.77;4.82;;;;;;;;;;4948884;29;20035;-71
2021/07/10 08:32:34;;;;;;;14.18;4.40;;;;;;;;;;4945658;29;20059;-70
2021/07/10 08:35:04;;;;;;;8.40;4.47;;;;;;;;;;4941795;29;20437;-74
2021/07/10 08:37:30;;;;;;;8.23;4.53;;;;;;;;;;4950995;29;20027;-71
2021/07/10 08:39:58;;;;;;;9.55;4.47;;;;;;;;;;4946835;29;20183;-70
2021/07/10 08:42:25;;;;;;;12.40;4.75;;;;;;;;;;4957747;28;20042;-71
2021/07/10 08:44:51;;;;;;;10.15;4.40;;;;;;;;;;4940916;29;20027;-74
2021/07/10 08:47:18;;;;;;;10.40;4.35;;;;;;;;;;4950503;29;20028;-75
2021/07/10 08:49:44;;;;;;;7.97;4.15;;;;;;;;;;4949111;29;20042;-72
2021/07/10 08:52:10;;;;;;;6.50;4.50;;;;;;;;;;4946469;29;20389;-74
2021/07/10 08:54:37;;;;;;;7.70;4.40;;;;;;;;;;4947913;29;20051;-74
2021/07/10 08:57:04;;;;;;;10.68;4.70;;;;;;;;;;4943774;29;20038;-72
2021/07/10 08:59:30;;;;;;;8.77;4.80;;;;;;;;;;4946837;29;20130;-72
2021/07/10 09:01:56;;;;;;;9.38;4.55;;;;;;;;;;4948406;29;20079;-71
2021/07/10 09:04:23;;;;;;;13.30;4.90;;;;;;;;;;4951753;28;20527;-72
2021/07/10 09:06:49;;;;;;;9.20;5.28;;;;;;;;;;4946015;29;20094;-73
2021/07/10 09:09:15;;;;;;;12.43;5.10;;;;;;;;;;4942226;29;20032;-74
2021/07/10 09:11:41;;;;;;;6.38;4.53;;;;;;;;;;4940161;29;20055;-73
2021/07/10 09:14:07;;;;;;;14.65;5.18;;;;;;;;;;4939370;28;20028;-74
2021/07/10 09:16:34;;;;;;;8.05;4.85;;;;;;;;;;4958175;28;20721;-70
2021/07/10 09:19:08;;;;;;;11.75;5.28;;;;;;;;;;4939251;29;20070;-71
2021/07/10 09:21:39;;;;;;;8.30;4.47;;;;;;;;;;4936852;29;20040;-68
2021/07/10 09:24:06;;;;;;;6.30;5.15;;;;;;;;;;4942494;29;20024;-82
2021/07/10 09:26:33;;;;;;;12.68;5.32;;;;;;;;;;4941344;29;20066;-71
2021/07/10 09:29:02;;;;;;;7.60;4.65;;;;;;;;;;4947922;29;20038;-73
2021/07/10 09:31:29;;;;;;;9.73;5.07;;;;;;;;;;4937560;29;20032;-72
2021/07/10 09:33:57;;;;;;;6.80;4.75;;;;;;;;;;4945613;29;20453;-71
2021/07/10 09:36:23;;;;;;;10.02;4.40;;;;;;;;;;4949998;29;20031;-74
2021/07/10 09:38:53;;;;;;;10.23;4.72;;;;;;;;;;4939929;28;20091;-71
2021/07/10 09:41:24;;;;;;;12.02;4.78;;;;;;;;;;4943280;29;20102;-67
2021/07/10 09:44:09;;;;;;;14.75;4.70;;;;;;;;;;4942514;29;20023;-78
2021/07/10 09:46:35;;;;;;;9.57;4.43;;;;;;;;;;4938587;29;20051;-78
2021/07/10 09:49:20;;;;;;;12.38;4.78;;;;;;;;;;4941524;29;20523;-73
2021/07/10 09:51:47;;;;;;;9.75;4.50;;;;;;;;;;4946715;29;20196;-70
2021/07/10 09:54:13;;;;;;;8.48;4.88;;;;;;;;;;4964212;28;20023;-71
2021/07/10 09:56:58;;;;;;;9.55;4.43;;;;;;;;;;4951295;28;20035;-69
2021/07/10 09:59:24;;;;;;;11.98;4.50;;;;;;;;;;4947245;29;20051;-68
2021/07/10 10:01:51;;;;;;;11.20;5.32;;;;;;;;;;4942407;29;20083;-70
2021/07/10 10:04:21;;;;;;;10.13;5.30;;;;;;;;;;4945802;29;20027;-71
2021/07/10 10:06:47;;;;;;;7.90;4.28;;;;;;;;;;4944674;29;20048;-70
2021/07/10 10:09:18;;;;;;;9.85;4.70;;;;;;;;;;4950363;29;20578;-69
2021/07/10 10:11:48;;;;;;;15.70;5.72;;;;;;;;;;4944594;29;20027;-72
2021/07/10 10:14:14;;;;;;;8.20;4.40;;;;;;;;;;4951080;29;20035;-70
2021/07/10 10:16:46;;;;;;;41.13;6.53;;;;;;;;;;4945721;29;20034;-69
2021/07/10 10:19:14;;;;;;;7.43;4.22;;;;;;;;;;4945968;29;20049;-72
2021/07/10 10:21:40;;;;;;;5.78;4.10;;;;;;;;;;4942384;29;20392;-69
2021/07/10 10:24:06;;;;;;;11.43;4.57;;;;;;;;;;4958152;28;20031;-71
2021/07/10 10:26:33;;;;;;;10.27;4.35;;;;;;;;;;4944136;29;20020;-77
2021/07/10 10:28:59;;;;;;;8.00;4.55;;;;;;;;;;4941609;29;20392;-71
2021/07/10 10:31:25;;;;;;;5.90;3.97;;;;;;;;;;4945252;29;20035;-73
2021/07/10 10:33:52;;;;;;;10.98;4.20;;;;;;;;;;4942602;29;20030;-75
2021/07/10 10:36:23;;;;;;;8.95;4.65;;;;;;;;;;4952398;29;20031;-74
2021/07/10 10:38:50;;;;;;;9.05;4.10;;;;;;;;;;4946485;29;20115;-72
2021/07/10 10:41:17;;;;;;;13.90;4.63;;;;;;;;;;4940786;29;20076;-76
2021/07/10 10:43:44;;;;;;;6.97;4.30;;;;;;;;;;4949098;29;20026;-70
2021/07/10 10:46:20;;;;;;;8.60;4.72;;;;;;;;;;4958683;28;20118;-69
2021/07/10 10:48:46;;;;;;;7.50;3.95;;;;;;;;;;4946482;29;20046;-71
2021/07/10 10:51:33;;;;;;;13.88;4.30;;;;;;;;;;4946870;29;20218;-73
2021/07/10 10:54:17;;;;;;;12.68;4.30;;;;;;;;;;4947879;29;20023;-71
2021/07/10 10:56:44;;;;;;;17.25;4.10;;;;;;;;;;4947090;29;20042;-68
2021/07/10 10:59:29;;;;;;;6.40;4.13;;;;;;;;;;4958099;28;20449;-74
2021/07/10 11:01:55;;;;;;;7.82;4.25;;;;;;;;;;4946882;29;20113;-72
2021/07/10 11:04:40;;;;;;;9.73;4.32;;;;;;;;;;4955081;28;20542;-71
2021/07/10 11:07:24;;;;;;;8.10;4.03;;;;;;;;;;4946050;29;20383;-70
2021/07/10 11:10:03;;;;;;;9.43;4.15;;;;;;;;;;4943049;29;20178;-67
2021/07/10 11:12:51;;;;;;;7.97;3.80;;;;;;;;;;4943352;29;20477;-67
2021/07/10 11:15:23;;;;;;;13.15;4.20;;;;;;;;;;4952343;29;20043;-65
2021/07/10 11:17:49;;;;;;;17.88;4.70;;;;;;;;;;4948152;29;20036;-66
2021/07/10 11:20:36;;;;;;;9.38;4.30;;;;;;;;;;4938598;29;20048;-70
2021/07/10 11:23:02;;;;;;;13.15;4.80;;;;;;;;;;4942391;29;20482;-70
2021/07/10 11:25:48;;;;;;;12.90;5.13;;;;;;;;;;4944911;29;20111;-71
2021/07/10 11:28:18;;;;;;;17.40;5.07;;;;;;;;;;4960713;28;20042;-70
2021/07/10 11:30:46;;;;;;;11.15;4.95;;;;;;;;;;4940727;29;20059;-68
2021/07/10 11:33:12;;;;;;;16.27;4.70;;;;;;;;;;4949126;29;20114;-72
2021/07/10 11:35:39;;;;;;;8.95;4.50;;;;;;;;;;4946275;29;20027;-70
2021/07/10 11:38:05;;;;;;;9.82;4.70;;;;;;;;;;4944632;29;20035;-68
2021/07/10 11:40:39;;;;;;;7.00;4.45;;;;;;;;;;4941260;29;20048;-72
2021/07/10 11:43:11;;;;;;;69.00;14.52;;;;;;;;;;4939843;29;20102;-77
2021/07/10 11:45:46;;;;;;;23.98;8.23;;;;;;;;;;4951680;29;20051;-68
2021/07/10 11:48:19;;;;;;;28.55;8.10;;;;;;;;;;4947635;29;20485;-70
2021/07/10 11:50:58;;;;;;;25.67;7.03;;;;;;;;;;4949909;29;20038;-70
2021/07/10 11:53:24;;;;;;;11.48;4.10;;;;;;;;;;4949145;29;20098;-73
2021/07/10 11:55:51;;;;;;;8.82;4.43;;;;;;;;;;4950035;29;20023;-73
2021/07/10 11:58:18;;;;;;;11.27;4.68;;;;;;;;;;4941313;29;20059;-71
2021/07/10 12:00:44;;;;;;;16.40;5.47;;;;;;;;;;4942491;29;20528;-71
2021/07/10 12:03:21;;;;;;;9.02;4.68;;;;;;;;;;4940520;29;20559;-72
2021/07/10 12:05:47;;;;;;;12.40;4.65;;;;;;;;;;4942430;29;20031;-79
2021/07/10 12:08:14;;;;;;;18.38;6.35;;;;;;;;;;4946692;28;20067;-73
2021/07/10 12:10:42;;;;;;;14.73;5.50;;;;;;;;;;4943116;29;20027;-73
2021/07/10 12:13:08;;;;;;;9.95;4.57;;;;;;;;;;4944432;29;20038;-74
2021/07/10 12:15:35;;;;;;;12.25;4.72;;;;;;;;;;4951345;29;20027;-73
2021/07/10 12:18:04;;;;;;;9.93;5.20;;;;;;;;;;4939295;29;20024;-73
2021/07/10 12:20:34;;;;;;;9.70;5.07;;;;;;;;;;4946327;28;20090;-74
2021/07/10 12:23:01;;;;;;;7.95;4.40;;;;;;;;;;4944141;29;20030;-74
2021/07/10 12:25:32;;;;;;;10.23;4.93;;;;;;;;;;4942139;29;20561;-75
2021/07/10 12:28:03;;;;;;;11.45;4.85;;;;;;;;;;4944349;29;20055;-72
2021/07/10 12:30:36;;;;;;;11.75;4.95;;;;;;;;;;4935797;29;20078;-72
2021/07/10 12:33:02;;;;;;;9.23;4.95;;;;;;;;;;4944794;29;20102;-77
2021/07/10 12:35:28;;;;;;;13.20;6.18;;;;;;;;;;4949556;29;20042;-75
2021/07/10 12:38:07;;;;;;;11.40;5.03;;;;;;;;;;4944236;29;20031;-77
2021/07/10 12:40:33;;;;;;;9.40;4.40;;;;;;;;;;4942558;29;20632;-77
2021/07/10 12:42:59;;;;;;;9.20;4.88;;;;;;;;;;4944666;29;20654;-74
2021/07/10 12:45:26;;;;;;;7.82;4.28;;;;;;;;;;4941114;29;20031;-75
2021/07/10 12:48:01;;;;;;;7.03;4.20;;;;;;;;;;4939319;29;20028;-76
2021/07/10 12:50:27;;;;;;;9.60;4.60;;;;;;;;;;4944807;29;20063;-74
2021/07/10 12:52:58;;;;;;;6.72;4.57;;;;;;;;;;4947496;29;20388;-75
2021/07/10 12:55:38;;;;;;;8.73;4.82;;;;;;;;;;4943149;29;20054;-74
2021/07/10 12:58:04;;;;;;;12.43;4.70;;;;;;;;;;4945583;29;20481;-77
2021/07/10 13:00:34;;;;;;;10.32;4.43;;;;;;;;;;4940800;29;20550;-76
2021/07/10 13:03:00;;;;;;;7.53;4.47;;;;;;;;;;4944127;29;20031;-76
2021/07/10 13:05:36;;;;;;;8.15;4.50;;;;;;;;;;4944879;29;20034;-77
2021/07/10 13:08:08;;;;;;;9.98;4.45;;;;;;;;;;4946221;29;20047;-74
2021/07/10 13:10:35;;;;;;;7.38;4.50;;;;;;;;;;4945142;29;20035;-79
2021/07/10 13:13:07;;;;;;;10.45;4.47;;;;;;;;;;4946042;29;20043;-78
2021/07/10 13:15:33;;;;;;;11.15;5.45;;;;;;;;;;4951867;29;20462;-79
2021/07/10 13:18:08;;;;;;;8.60;4.53;;;;;;;;;;4947281;29;20028;-77
2021/07/10 13:20:35;;;;;;;9.05;5.05;;;;;;;;;;4949725;29;20047;-79
2021/07/10 13:23:01;;;;;;;7.63;4.78;;;;;;;;;;4949368;29;20034;-77
2021/07/10 13:25:37;;;;;;;10.63;4.50;;;;;;;;;;4952443;29;20106;-74
2021/07/10 13:28:24;;;;;;;11.30;4.93;;;;;;;;;;4949008;29;20019;-79
2021/07/10 13:30:51;;;;;;;7.95;4.50;;;;;;;;;;4963142;28;20024;-75
2021/07/10 13:33:28;;;;;;;7.82;5.00;;;;;;;;;;4949099;29;20046;-77
2021/07/10 13:36:24;;;;;;;5.93;4.70;;;;;;;;;;4952386;29;20019;-78
2021/07/10 13:38:52;;;;;;;7.55;4.30;;;;;;;;;;4932922;29;20031;-75
2021/07/10 13:41:23;;;;;;;9.63;4.78;;;;;;;;;;4950680;29;20492;-77
2021/07/10 13:43:59;;;;;;;11.52;5.15;;;;;;;;;;4950635;29;20525;-76
2021/07/10 13:46:29;;;;;;;5.97;4.30;;;;;;;;;;4947652;29;20365;-75
2021/07/10 13:48:55;;;;;;;10.85;4.70;;;;;;;;;;4948080;29;20023;-75
2021/07/10 13:51:25;;;;;;;10.57;4.78;;;;;;;;;;4950654;28;20043;-78
2021/07/10 13:53:51;;;;;;;8.88;4.35;;;;;;;;;;4953931;29;20031;-75
2021/07/10 13:56:18;;;;;;;10.65;4.80;;;;;;;;;;4951510;29;20506;-79
2021/07/10 13:59:03;;;;;;;10.40;4.38;;;;;;;;;;4947847;29;20019;-76
2021/07/10 14:01:29;;;;;;;7.97;4.40;;;;;;;;;;4952103;29;20043;-80
2021/07/10 14:03:55;;;;;;;7.03;4.30;;;;;;;;;;4948591;29;20524;-75
2021/07/10 14:06:21;;;;;;;7.00;4.25;;;;;;;;;;4945396;29;20155;-80
2021/07/10 14:08:47;;;;;;;8.18;4.40;;;;;;;;;;4947311;29;20038;-76
2021/07/10 14:11:13;;;;;;;6.40;4.20;;;;;;;;;;4951617;29;20126;-80
2021/07/10 14:13:39;;;;;;;6.65;4.82;;;;;;;;;;4951996;29;20020;-78
2021/07/10 14:16:06;;;;;;;8.10;4.30;;;;;;;;;;4951164;29;20019;-77
2021/07/10 14:18:32;;;;;;;8.85;4.30;;;;;;;;;;4950797;29;20024;-74
2021/07/10 14:20:58;;;;;;;11.18;4.28;;;;;;;;;;4944846;29;20050;-76
2021/07/10 14:23:25;;;;;;;7.18;4.18;;;;;;;;;;4949140;29;20495;-76
2021/07/10 14:25:52;;;;;;;7.80;4.53;;;;;;;;;;4945079;29;20111;-76
2021/07/10 14:28:18;;;;;;;10.10;4.70;;;;;;;;;;4945639;29;20576;-77
2021/07/10 14:30:44;;;;;;;11.07;5.20;;;;;;;;;;4946940;29;20028;-74
2021/07/10 14:33:13;;;;;;;8.57;4.45;;;;;;;;;;4949231;29;20031;-75
2021/07/10 14:35:39;;;;;;;9.38;4.50;;;;;;;;;;4945188;29;20145;-75
2021/07/10 14:38:09;;;;;;;9.55;4.80;;;;;;;;;;4948471;29;20033;-74
2021/07/10 14:40:36;;;;;;;8.02;4.43;;;;;;;;;;4948142;29;20157;-73
2021/07/10 14:43:03;;;;;;;9.43;4.70;;;;;;;;;;4963995;28;20028;-76
2021/07/10 14:45:32;;;;;;;10.15;4.50;;;;;;;;;;4955336;29;20037;-70
2021/07/10 14:47:58;;;;;;;12.93;5.10;;;;;;;;;;4946526;29;20128;-76